<?xml version="1.0" encoding="UTF-8" standalone="no" ?>
<gpx xmlns="http://www.topografix.com/GPX/1/1" xmlns:xsi="http://www.w3.org/2001/XMLSchema-instance" xsi:schemaLocation="http://www.topografix.com/GPX/1/1 http://www.topografix.com/GPX/1/1/gpx.xsd" version="1.1" creator="VisuGPX - https://www.visugpx.com">
  <metadata>
    <name>Rando \&quot;loups-garou de la Serre\&quot;</name>
    <desc><![CDATA[Randonnee a Amanges (39-Jura) 




www.marsuontheweb.fr]]></desc>
  </metadata>
  <trk>
    <name><![CDATA[track]]></name>
    <trkseg>
      <trkpt lat="47.16558" lon="5.56772">
        <ele>249</ele>
        <time>2008-11-27T12:47:48Z</time>
      </trkpt>
      <trkpt lat="47.16556" lon="5.56769">
        <ele>248</ele>
        <time>2008-11-27T12:47:53Z</time>
      </trkpt>
      <trkpt lat="47.16538" lon="5.56758">
        <ele>248</ele>
        <time>2008-11-27T12:48:14Z</time>
      </trkpt>
      <trkpt lat="47.16534" lon="5.5672">
        <ele>247</ele>
        <time>2008-11-27T12:48:31Z</time>
      </trkpt>
      <trkpt lat="47.16535" lon="5.56692">
        <ele>246</ele>
        <time>2008-11-27T12:48:46Z</time>
      </trkpt>
      <trkpt lat="47.16533" lon="5.56665">
        <ele>246</ele>
        <time>2008-11-27T12:48:59Z</time>
      </trkpt>
      <trkpt lat="47.1654" lon="5.56634">
        <ele>245</ele>
        <time>2008-11-27T12:49:14Z</time>
      </trkpt>
      <trkpt lat="47.16544" lon="5.56623">
        <ele>245</ele>
        <time>2008-11-27T12:49:21Z</time>
      </trkpt>
      <trkpt lat="47.16546" lon="5.56615">
        <ele>244</ele>
        <time>2008-11-27T12:49:26Z</time>
      </trkpt>
      <trkpt lat="47.16553" lon="5.56597">
        <ele>245</ele>
        <time>2008-11-27T12:49:36Z</time>
      </trkpt>
      <trkpt lat="47.16559" lon="5.56581">
        <ele>245</ele>
        <time>2008-11-27T12:49:45Z</time>
      </trkpt>
      <trkpt lat="47.16562" lon="5.56562">
        <ele>245</ele>
        <time>2008-11-27T12:49:57Z</time>
      </trkpt>
      <trkpt lat="47.16563" lon="5.56559">
        <ele>245</ele>
        <time>2008-11-27T12:49:59Z</time>
      </trkpt>
      <trkpt lat="47.16564" lon="5.56553">
        <ele>245</ele>
        <time>2008-11-27T12:50:02Z</time>
      </trkpt>
      <trkpt lat="47.1657" lon="5.56547">
        <ele>245</ele>
        <time>2008-11-27T12:50:08Z</time>
      </trkpt>
      <trkpt lat="47.1658" lon="5.56529">
        <ele>245</ele>
        <time>2008-11-27T12:50:22Z</time>
      </trkpt>
      <trkpt lat="47.16595" lon="5.56532">
        <ele>245</ele>
        <time>2008-11-27T12:50:33Z</time>
      </trkpt>
      <trkpt lat="47.1661" lon="5.5653">
        <ele>246</ele>
        <time>2008-11-27T12:50:46Z</time>
      </trkpt>
      <trkpt lat="47.16614" lon="5.56531">
        <ele>246</ele>
        <time>2008-11-27T12:50:49Z</time>
      </trkpt>
      <trkpt lat="47.16629" lon="5.56533">
        <ele>246</ele>
        <time>2008-11-27T12:51:02Z</time>
      </trkpt>
      <trkpt lat="47.16636" lon="5.56534">
        <ele>246</ele>
        <time>2008-11-27T12:51:07Z</time>
      </trkpt>
      <trkpt lat="47.16654" lon="5.56538">
        <ele>247</ele>
        <time>2008-11-27T12:51:21Z</time>
      </trkpt>
      <trkpt lat="47.1667" lon="5.56542">
        <ele>248</ele>
        <time>2008-11-27T12:51:33Z</time>
      </trkpt>
      <trkpt lat="47.1668" lon="5.56548">
        <ele>247</ele>
        <time>2008-11-27T12:51:40Z</time>
      </trkpt>
      <trkpt lat="47.16692" lon="5.56547">
        <ele>248</ele>
        <time>2008-11-27T12:51:48Z</time>
      </trkpt>
      <trkpt lat="47.16696" lon="5.56547">
        <ele>248</ele>
        <time>2008-11-27T12:51:50Z</time>
      </trkpt>
      <trkpt lat="47.167" lon="5.56543">
        <ele>248</ele>
        <time>2008-11-27T12:51:55Z</time>
      </trkpt>
      <trkpt lat="47.16706" lon="5.56537">
        <ele>248</ele>
        <time>2008-11-27T12:52:01Z</time>
      </trkpt>
      <trkpt lat="47.16715" lon="5.56526">
        <ele>249</ele>
        <time>2008-11-27T12:52:10Z</time>
      </trkpt>
      <trkpt lat="47.16719" lon="5.56521">
        <ele>249</ele>
        <time>2008-11-27T12:52:15Z</time>
      </trkpt>
      <trkpt lat="47.16733" lon="5.56506">
        <ele>249</ele>
        <time>2008-11-27T12:52:27Z</time>
      </trkpt>
      <trkpt lat="47.16737" lon="5.56505">
        <ele>250</ele>
        <time>2008-11-27T12:52:30Z</time>
      </trkpt>
      <trkpt lat="47.16748" lon="5.56498">
        <ele>250</ele>
        <time>2008-11-27T12:52:38Z</time>
      </trkpt>
      <trkpt lat="47.16763" lon="5.56481">
        <ele>250</ele>
        <time>2008-11-27T12:52:51Z</time>
      </trkpt>
      <trkpt lat="47.16783" lon="5.56467">
        <ele>252</ele>
        <time>2008-11-27T12:53:10Z</time>
      </trkpt>
      <trkpt lat="47.16791" lon="5.56467">
        <ele>253</ele>
        <time>2008-11-27T12:53:15Z</time>
      </trkpt>
      <trkpt lat="47.16809" lon="5.56465">
        <ele>254</ele>
        <time>2008-11-27T12:53:31Z</time>
      </trkpt>
      <trkpt lat="47.16826" lon="5.56462">
        <ele>256</ele>
        <time>2008-11-27T12:53:46Z</time>
      </trkpt>
      <trkpt lat="47.1683" lon="5.56462">
        <ele>256</ele>
        <time>2008-11-27T12:53:49Z</time>
      </trkpt>
      <trkpt lat="47.16836" lon="5.56462">
        <ele>257</ele>
        <time>2008-11-27T12:53:53Z</time>
      </trkpt>
      <trkpt lat="47.16856" lon="5.56458">
        <ele>258</ele>
        <time>2008-11-27T12:54:10Z</time>
      </trkpt>
      <trkpt lat="47.16874" lon="5.56459">
        <ele>261</ele>
        <time>2008-11-27T12:54:25Z</time>
      </trkpt>
      <trkpt lat="47.16896" lon="5.56454">
        <ele>264</ele>
        <time>2008-11-27T12:54:48Z</time>
      </trkpt>
      <trkpt lat="47.16922" lon="5.56455">
        <ele>267</ele>
        <time>2008-11-27T12:55:09Z</time>
      </trkpt>
      <trkpt lat="47.16925" lon="5.56452">
        <ele>267</ele>
        <time>2008-11-27T12:55:12Z</time>
      </trkpt>
      <trkpt lat="47.16931" lon="5.56449">
        <ele>268</ele>
        <time>2008-11-27T12:55:18Z</time>
      </trkpt>
      <trkpt lat="47.16947" lon="5.56442">
        <ele>270</ele>
        <time>2008-11-27T12:55:30Z</time>
      </trkpt>
      <trkpt lat="47.16953" lon="5.56437">
        <ele>271</ele>
        <time>2008-11-27T12:55:37Z</time>
      </trkpt>
      <trkpt lat="47.16958" lon="5.56435">
        <ele>271</ele>
        <time>2008-11-27T12:55:42Z</time>
      </trkpt>
      <trkpt lat="47.16973" lon="5.56424">
        <ele>274</ele>
        <time>2008-11-27T12:55:58Z</time>
      </trkpt>
      <trkpt lat="47.16987" lon="5.56416">
        <ele>275</ele>
        <time>2008-11-27T12:56:11Z</time>
      </trkpt>
      <trkpt lat="47.17" lon="5.56413">
        <ele>277</ele>
        <time>2008-11-27T12:56:23Z</time>
      </trkpt>
      <trkpt lat="47.17015" lon="5.56414">
        <ele>278</ele>
        <time>2008-11-27T12:56:37Z</time>
      </trkpt>
      <trkpt lat="47.17029" lon="5.56421">
        <ele>279</ele>
        <time>2008-11-27T12:56:48Z</time>
      </trkpt>
      <trkpt lat="47.17044" lon="5.56428">
        <ele>280</ele>
        <time>2008-11-27T12:57:00Z</time>
      </trkpt>
      <trkpt lat="47.17059" lon="5.56436">
        <ele>281</ele>
        <time>2008-11-27T12:57:13Z</time>
      </trkpt>
      <trkpt lat="47.17073" lon="5.56445">
        <ele>283</ele>
        <time>2008-11-27T12:57:28Z</time>
      </trkpt>
      <trkpt lat="47.17091" lon="5.56452">
        <ele>284</ele>
        <time>2008-11-27T12:57:42Z</time>
      </trkpt>
      <trkpt lat="47.17111" lon="5.56462">
        <ele>286</ele>
        <time>2008-11-27T12:58:01Z</time>
      </trkpt>
      <trkpt lat="47.17127" lon="5.56469">
        <ele>287</ele>
        <time>2008-11-27T12:58:14Z</time>
      </trkpt>
      <trkpt lat="47.17147" lon="5.56477">
        <ele>288</ele>
        <time>2008-11-27T12:58:30Z</time>
      </trkpt>
      <trkpt lat="47.17165" lon="5.56486">
        <ele>289</ele>
        <time>2008-11-27T12:58:46Z</time>
      </trkpt>
      <trkpt lat="47.17182" lon="5.56493">
        <ele>290</ele>
        <time>2008-11-27T12:59:02Z</time>
      </trkpt>
      <trkpt lat="47.17202" lon="5.56499">
        <ele>292</ele>
        <time>2008-11-27T12:59:18Z</time>
      </trkpt>
      <trkpt lat="47.17215" lon="5.565">
        <ele>293</ele>
        <time>2008-11-27T12:59:32Z</time>
      </trkpt>
      <trkpt lat="47.17233" lon="5.56512">
        <ele>294</ele>
        <time>2008-11-27T12:59:49Z</time>
      </trkpt>
      <trkpt lat="47.17253" lon="5.56531">
        <ele>296</ele>
        <time>2008-11-27T13:00:09Z</time>
      </trkpt>
      <trkpt lat="47.1727" lon="5.56548">
        <ele>297</ele>
        <time>2008-11-27T13:00:29Z</time>
      </trkpt>
      <trkpt lat="47.17287" lon="5.56559">
        <ele>297</ele>
        <time>2008-11-27T13:00:42Z</time>
      </trkpt>
      <trkpt lat="47.17303" lon="5.56552">
        <ele>299</ele>
        <time>2008-11-27T13:01:01Z</time>
      </trkpt>
      <trkpt lat="47.17332" lon="5.56545">
        <ele>302</ele>
        <time>2008-11-27T13:01:24Z</time>
      </trkpt>
      <trkpt lat="47.17353" lon="5.56543">
        <ele>302</ele>
        <time>2008-11-27T13:01:46Z</time>
      </trkpt>
      <trkpt lat="47.17389" lon="5.56538">
        <ele>305</ele>
        <time>2008-11-27T13:02:11Z</time>
      </trkpt>
      <trkpt lat="47.17408" lon="5.56541">
        <ele>307</ele>
        <time>2008-11-27T13:02:24Z</time>
      </trkpt>
      <trkpt lat="47.17425" lon="5.56537">
        <ele>307</ele>
        <time>2008-11-27T13:02:38Z</time>
      </trkpt>
      <trkpt lat="47.17445" lon="5.56525">
        <ele>309</ele>
        <time>2008-11-27T13:03:01Z</time>
      </trkpt>
      <trkpt lat="47.1747" lon="5.56505">
        <ele>311</ele>
        <time>2008-11-27T13:03:23Z</time>
      </trkpt>
      <trkpt lat="47.17477" lon="5.56489">
        <ele>311</ele>
        <time>2008-11-27T13:03:40Z</time>
      </trkpt>
      <trkpt lat="47.1749" lon="5.56475">
        <ele>314</ele>
        <time>2008-11-27T13:04:00Z</time>
      </trkpt>
      <trkpt lat="47.17491" lon="5.5647">
        <ele>315</ele>
        <time>2008-11-27T13:04:09Z</time>
      </trkpt>
      <trkpt lat="47.17517" lon="5.56469">
        <ele>296.85733</ele>
        <time>2008-11-27T13:04:32Z</time>
      </trkpt>
      <trkpt lat="47.17531" lon="5.56463">
        <ele>300.482422</ele>
        <time>2008-11-27T13:04:44Z</time>
      </trkpt>
      <trkpt lat="47.17546" lon="5.56428">
        <ele>323</ele>
        <time>2008-11-27T13:05:03Z</time>
      </trkpt>
      <trkpt lat="47.17549" lon="5.56433">
        <ele>323</ele>
        <time>2008-11-27T13:05:06Z</time>
      </trkpt>
      <trkpt lat="47.1755" lon="5.56437">
        <ele>323</ele>
        <time>2008-11-27T13:05:08Z</time>
      </trkpt>
      <trkpt lat="47.17559" lon="5.56445">
        <ele>325</ele>
        <time>2008-11-27T13:05:16Z</time>
      </trkpt>
      <trkpt lat="47.17568" lon="5.56461">
        <ele>309.410614</ele>
        <time>2008-11-27T13:05:29Z</time>
      </trkpt>
      <trkpt lat="47.17579" lon="5.56476">
        <ele>308.480011</ele>
        <time>2008-11-27T13:05:46Z</time>
      </trkpt>
      <trkpt lat="47.1759" lon="5.565">
        <ele>305.222321</ele>
        <time>2008-11-27T13:06:02Z</time>
      </trkpt>
      <trkpt lat="47.1761" lon="5.56513">
        <ele>305.838745</ele>
        <time>2008-11-27T13:06:21Z</time>
      </trkpt>
      <trkpt lat="47.17624" lon="5.56522">
        <ele>306.163757</ele>
        <time>2008-11-27T13:06:39Z</time>
      </trkpt>
      <trkpt lat="47.17642" lon="5.56534">
        <ele>306.663757</ele>
        <time>2008-11-27T13:06:50Z</time>
      </trkpt>
      <trkpt lat="47.17654" lon="5.56533">
        <ele>309.279755</ele>
        <time>2008-11-27T13:07:03Z</time>
      </trkpt>
      <trkpt lat="47.17667" lon="5.56536">
        <ele>311.391235</ele>
        <time>2008-11-27T13:07:17Z</time>
      </trkpt>
      <trkpt lat="47.17682" lon="5.5654">
        <ele>313.386627</ele>
        <time>2008-11-27T13:07:34Z</time>
      </trkpt>
      <trkpt lat="47.177" lon="5.5654">
        <ele>315.949341</ele>
        <time>2008-11-27T13:07:56Z</time>
      </trkpt>
      <trkpt lat="47.17712" lon="5.56545">
        <ele>315.663116</ele>
        <time>2008-11-27T13:08:16Z</time>
      </trkpt>
      <trkpt lat="47.1772" lon="5.56544">
        <ele>316.544281</ele>
        <time>2008-11-27T13:08:52Z</time>
      </trkpt>
      <trkpt lat="47.17734" lon="5.56543">
        <ele>317.857513</ele>
        <time>2008-11-27T13:08:54Z</time>
      </trkpt>
      <trkpt lat="47.17751" lon="5.56546">
        <ele>322.368896</ele>
        <time>2008-11-27T13:09:16Z</time>
      </trkpt>
      <trkpt lat="47.17782" lon="5.56548">
        <ele>331.067627</ele>
        <time>2008-11-27T13:09:34Z</time>
      </trkpt>
      <trkpt lat="47.17801" lon="5.56561">
        <ele>333.988129</ele>
        <time>2008-11-27T13:09:58Z</time>
      </trkpt>
      <trkpt lat="47.17817" lon="5.56565">
        <ele>337.397064</ele>
        <time>2008-11-27T13:10:07Z</time>
      </trkpt>
      <trkpt lat="47.17834" lon="5.56572">
        <ele>340.048706</ele>
        <time>2008-11-27T13:10:26Z</time>
      </trkpt>
      <trkpt lat="47.17854" lon="5.5657">
        <ele>345.491058</ele>
        <time>2008-11-27T13:10:44Z</time>
      </trkpt>
      <trkpt lat="47.17866" lon="5.56576">
        <ele>347.389862</ele>
        <time>2008-11-27T13:11:30Z</time>
      </trkpt>
      <trkpt lat="47.17895" lon="5.56594">
        <ele>348.947754</ele>
        <time>2008-11-27T13:11:42Z</time>
      </trkpt>
      <trkpt lat="47.17928" lon="5.56598">
        <ele>352.556427</ele>
        <time>2008-11-27T13:12:04Z</time>
      </trkpt>
      <trkpt lat="47.17949" lon="5.56533">
        <ele>360.528137</ele>
        <time>2008-11-27T13:13:25Z</time>
      </trkpt>
      <trkpt lat="47.17963" lon="5.56514">
        <ele>361.43692</ele>
        <time>2008-11-27T13:14:55Z</time>
      </trkpt>
      <trkpt lat="47.17973" lon="5.56502">
        <ele>361.846924</ele>
        <time>2008-11-27T13:15:09Z</time>
      </trkpt>
      <trkpt lat="47.17982" lon="5.56477">
        <ele>361.456116</ele>
        <time>2008-11-27T13:15:27Z</time>
      </trkpt>
      <trkpt lat="47.17995" lon="5.56463">
        <ele>366</ele>
        <time>2008-11-27T13:15:47Z</time>
      </trkpt>
      <trkpt lat="47.18007" lon="5.56444">
        <ele>359.566254</ele>
        <time>2008-11-27T13:16:10Z</time>
      </trkpt>
      <trkpt lat="47.18019" lon="5.56422">
        <ele>356.73407</ele>
        <time>2008-11-27T13:16:30Z</time>
      </trkpt>
      <trkpt lat="47.18029" lon="5.56403">
        <ele>354.570313</ele>
        <time>2008-11-27T13:16:59Z</time>
      </trkpt>
      <trkpt lat="47.18049" lon="5.56371">
        <ele>352.187958</ele>
        <time>2008-11-27T13:17:42Z</time>
      </trkpt>
      <trkpt lat="47.1807" lon="5.56323">
        <ele>351.873566</ele>
        <time>2008-11-27T13:17:50Z</time>
      </trkpt>
      <trkpt lat="47.181" lon="5.56278">
        <ele>351.490692</ele>
        <time>2008-11-27T13:18:10Z</time>
      </trkpt>
      <trkpt lat="47.18126" lon="5.56314">
        <ele>358</ele>
        <time>2008-11-27T13:18:30Z</time>
      </trkpt>
      <trkpt lat="47.18141" lon="5.56282">
        <ele>358</ele>
        <time>2008-11-27T13:18:52Z</time>
      </trkpt>
      <trkpt lat="47.18147" lon="5.56268">
        <ele>358</ele>
        <time>2008-11-27T13:19:12Z</time>
      </trkpt>
      <trkpt lat="47.18165" lon="5.56242">
        <ele>346.209381</ele>
        <time>2008-11-27T13:19:31Z</time>
      </trkpt>
      <trkpt lat="47.18183" lon="5.5621">
        <ele>348.851257</ele>
        <time>2008-11-27T13:19:54Z</time>
      </trkpt>
      <trkpt lat="47.18205" lon="5.56174">
        <ele>353.669952</ele>
        <time>2008-11-27T13:20:16Z</time>
      </trkpt>
      <trkpt lat="47.18219" lon="5.56143">
        <ele>361</ele>
        <time>2008-11-27T13:20:38Z</time>
      </trkpt>
      <trkpt lat="47.18224" lon="5.56125">
        <ele>360</ele>
        <time>2008-11-27T13:20:59Z</time>
      </trkpt>
      <trkpt lat="47.18247" lon="5.56097">
        <ele>355.169861</ele>
        <time>2008-11-27T13:21:21Z</time>
      </trkpt>
      <trkpt lat="47.18263" lon="5.56065">
        <ele>353.995056</ele>
        <time>2008-11-27T13:21:43Z</time>
      </trkpt>
      <trkpt lat="47.18283" lon="5.5608">
        <ele>361</ele>
        <time>2008-11-27T13:22:07Z</time>
      </trkpt>
      <trkpt lat="47.18291" lon="5.56087">
        <ele>362</ele>
        <time>2008-11-27T13:22:15Z</time>
      </trkpt>
      <trkpt lat="47.18297" lon="5.56094">
        <ele>363</ele>
        <time>2008-11-27T13:22:21Z</time>
      </trkpt>
      <trkpt lat="47.18311" lon="5.56096">
        <ele>363</ele>
        <time>2008-11-27T13:22:35Z</time>
      </trkpt>
      <trkpt lat="47.18331" lon="5.5608">
        <ele>363</ele>
        <time>2008-11-27T13:22:55Z</time>
      </trkpt>
      <trkpt lat="47.18356" lon="5.56051">
        <ele>364</ele>
        <time>2008-11-27T13:23:19Z</time>
      </trkpt>
      <trkpt lat="47.18368" lon="5.56015">
        <ele>356.771881</ele>
        <time>2008-11-27T13:23:43Z</time>
      </trkpt>
      <trkpt lat="47.18373" lon="5.55991">
        <ele>359.724182</ele>
        <time>2008-11-27T13:23:59Z</time>
      </trkpt>
      <trkpt lat="47.18379" lon="5.55965">
        <ele>360.743073</ele>
        <time>2008-11-27T13:24:23Z</time>
      </trkpt>
      <trkpt lat="47.18401" lon="5.55927">
        <ele>367</ele>
        <time>2008-11-27T13:24:44Z</time>
      </trkpt>
      <trkpt lat="47.18412" lon="5.5589">
        <ele>366</ele>
        <time>2008-11-27T13:25:06Z</time>
      </trkpt>
      <trkpt lat="47.18417" lon="5.55872">
        <ele>366</ele>
        <time>2008-11-27T13:25:23Z</time>
      </trkpt>
      <trkpt lat="47.18433" lon="5.55853">
        <ele>367</ele>
        <time>2008-11-27T13:25:40Z</time>
      </trkpt>
      <trkpt lat="47.18448" lon="5.55829">
        <ele>368</ele>
        <time>2008-11-27T13:25:57Z</time>
      </trkpt>
      <trkpt lat="47.18473" lon="5.55808">
        <ele>369</ele>
        <time>2008-11-27T13:26:20Z</time>
      </trkpt>
      <trkpt lat="47.18476" lon="5.558">
        <ele>369</ele>
        <time>2008-11-27T13:26:25Z</time>
      </trkpt>
      <trkpt lat="47.18477" lon="5.55796">
        <ele>369</ele>
        <time>2008-11-27T13:26:28Z</time>
      </trkpt>
      <trkpt lat="47.1849" lon="5.55772">
        <ele>370</ele>
        <time>2008-11-27T13:26:48Z</time>
      </trkpt>
      <trkpt lat="47.18494" lon="5.55767">
        <ele>370</ele>
        <time>2008-11-27T13:26:52Z</time>
      </trkpt>
      <trkpt lat="47.18497" lon="5.55764">
        <ele>370</ele>
        <time>2008-11-27T13:26:55Z</time>
      </trkpt>
      <trkpt lat="47.18502" lon="5.55755">
        <ele>370</ele>
        <time>2008-11-27T13:27:01Z</time>
      </trkpt>
      <trkpt lat="47.18511" lon="5.55748">
        <ele>370</ele>
        <time>2008-11-27T13:27:08Z</time>
      </trkpt>
      <trkpt lat="47.18518" lon="5.55735">
        <ele>370</ele>
        <time>2008-11-27T13:27:15Z</time>
      </trkpt>
      <trkpt lat="47.1852" lon="5.55731">
        <ele>370</ele>
        <time>2008-11-27T13:27:18Z</time>
      </trkpt>
      <trkpt lat="47.18535" lon="5.55717">
        <ele>370</ele>
        <time>2008-11-27T13:27:30Z</time>
      </trkpt>
      <trkpt lat="47.18538" lon="5.5571">
        <ele>370</ele>
        <time>2008-11-27T13:27:36Z</time>
      </trkpt>
      <trkpt lat="47.18549" lon="5.55692">
        <ele>369</ele>
        <time>2008-11-27T13:27:49Z</time>
      </trkpt>
      <trkpt lat="47.18556" lon="5.55679">
        <ele>368</ele>
        <time>2008-11-27T13:27:59Z</time>
      </trkpt>
      <trkpt lat="47.18579" lon="5.55656">
        <ele>368</ele>
        <time>2008-11-27T13:28:16Z</time>
      </trkpt>
      <trkpt lat="47.18591" lon="5.55645">
        <ele>368</ele>
        <time>2008-11-27T13:28:27Z</time>
      </trkpt>
      <trkpt lat="47.18599" lon="5.5563">
        <ele>368</ele>
        <time>2008-11-27T13:28:39Z</time>
      </trkpt>
      <trkpt lat="47.18612" lon="5.55608">
        <ele>368</ele>
        <time>2008-11-27T13:28:55Z</time>
      </trkpt>
      <trkpt lat="47.18616" lon="5.55604">
        <ele>368</ele>
        <time>2008-11-27T13:28:58Z</time>
      </trkpt>
      <trkpt lat="47.18631" lon="5.55572">
        <ele>367</ele>
        <time>2008-11-27T13:29:19Z</time>
      </trkpt>
      <trkpt lat="47.18642" lon="5.55538">
        <ele>366</ele>
        <time>2008-11-27T13:29:39Z</time>
      </trkpt>
      <trkpt lat="47.18651" lon="5.55519">
        <ele>366</ele>
        <time>2008-11-27T13:29:53Z</time>
      </trkpt>
      <trkpt lat="47.18655" lon="5.55487">
        <ele>366</ele>
        <time>2008-11-27T13:30:12Z</time>
      </trkpt>
      <trkpt lat="47.18656" lon="5.5545">
        <ele>368</ele>
        <time>2008-11-27T13:30:32Z</time>
      </trkpt>
      <trkpt lat="47.1866" lon="5.55418">
        <ele>370</ele>
        <time>2008-11-27T13:30:50Z</time>
      </trkpt>
      <trkpt lat="47.18671" lon="5.55386">
        <ele>371</ele>
        <time>2008-11-27T13:31:09Z</time>
      </trkpt>
      <trkpt lat="47.18677" lon="5.55355">
        <ele>370</ele>
        <time>2008-11-27T13:31:27Z</time>
      </trkpt>
      <trkpt lat="47.18689" lon="5.55318">
        <ele>370</ele>
        <time>2008-11-27T13:31:48Z</time>
      </trkpt>
      <trkpt lat="47.18699" lon="5.55279">
        <ele>370</ele>
        <time>2008-11-27T13:32:08Z</time>
      </trkpt>
      <trkpt lat="47.18697" lon="5.55234">
        <ele>370</ele>
        <time>2008-11-27T13:32:28Z</time>
      </trkpt>
      <trkpt lat="47.18692" lon="5.55202">
        <ele>369</ele>
        <time>2008-11-27T13:32:47Z</time>
      </trkpt>
      <trkpt lat="47.18691" lon="5.55197">
        <ele>369</ele>
        <time>2008-11-27T13:32:50Z</time>
      </trkpt>
      <trkpt lat="47.18681" lon="5.55183">
        <ele>368</ele>
        <time>2008-11-27T13:32:59Z</time>
      </trkpt>
      <trkpt lat="47.18682" lon="5.5517">
        <ele>369</ele>
        <time>2008-11-27T13:33:11Z</time>
      </trkpt>
      <trkpt lat="47.18667" lon="5.55171">
        <ele>366</ele>
        <time>2008-11-27T13:35:49Z</time>
      </trkpt>
      <trkpt lat="47.1865" lon="5.55195">
        <ele>364</ele>
        <time>2008-11-27T13:36:09Z</time>
      </trkpt>
      <trkpt lat="47.18646" lon="5.552">
        <ele>364</ele>
        <time>2008-11-27T13:36:12Z</time>
      </trkpt>
      <trkpt lat="47.18645" lon="5.55206">
        <ele>364</ele>
        <time>2008-11-27T13:36:17Z</time>
      </trkpt>
      <trkpt lat="47.18637" lon="5.55223">
        <ele>362</ele>
        <time>2008-11-27T13:36:27Z</time>
      </trkpt>
      <trkpt lat="47.18626" lon="5.55231">
        <ele>361</ele>
        <time>2008-11-27T13:36:37Z</time>
      </trkpt>
      <trkpt lat="47.18612" lon="5.55253">
        <ele>361</ele>
        <time>2008-11-27T13:36:52Z</time>
      </trkpt>
      <trkpt lat="47.18597" lon="5.55276">
        <ele>360</ele>
        <time>2008-11-27T13:37:12Z</time>
      </trkpt>
      <trkpt lat="47.18569" lon="5.55303">
        <ele>358</ele>
        <time>2008-11-27T13:37:38Z</time>
      </trkpt>
      <trkpt lat="47.18558" lon="5.55322">
        <ele>357</ele>
        <time>2008-11-27T13:37:57Z</time>
      </trkpt>
      <trkpt lat="47.18548" lon="5.55338">
        <ele>355</ele>
        <time>2008-11-27T13:38:13Z</time>
      </trkpt>
      <trkpt lat="47.18537" lon="5.55359">
        <ele>354</ele>
        <time>2008-11-27T13:38:27Z</time>
      </trkpt>
      <trkpt lat="47.18511" lon="5.55364">
        <ele>353</ele>
        <time>2008-11-27T13:38:45Z</time>
      </trkpt>
      <trkpt lat="47.18494" lon="5.55345">
        <ele>353</ele>
        <time>2008-11-27T13:38:59Z</time>
      </trkpt>
      <trkpt lat="47.18475" lon="5.55316">
        <ele>352</ele>
        <time>2008-11-27T13:39:20Z</time>
      </trkpt>
      <trkpt lat="47.18462" lon="5.553">
        <ele>352</ele>
        <time>2008-11-27T13:39:33Z</time>
      </trkpt>
      <trkpt lat="47.18445" lon="5.55278">
        <ele>350</ele>
        <time>2008-11-27T13:39:52Z</time>
      </trkpt>
      <trkpt lat="47.18421" lon="5.55246">
        <ele>347</ele>
        <time>2008-11-27T13:40:15Z</time>
      </trkpt>
      <trkpt lat="47.18396" lon="5.5522">
        <ele>344</ele>
        <time>2008-11-27T13:40:40Z</time>
      </trkpt>
      <trkpt lat="47.18371" lon="5.55188">
        <ele>341</ele>
        <time>2008-11-27T13:41:05Z</time>
      </trkpt>
      <trkpt lat="47.18345" lon="5.55161">
        <ele>339</ele>
        <time>2008-11-27T13:41:26Z</time>
      </trkpt>
      <trkpt lat="47.18329" lon="5.55138">
        <ele>337</ele>
        <time>2008-11-27T13:41:40Z</time>
      </trkpt>
      <trkpt lat="47.18314" lon="5.55119">
        <ele>335</ele>
        <time>2008-11-27T13:41:58Z</time>
      </trkpt>
      <trkpt lat="47.183" lon="5.55101">
        <ele>332</ele>
        <time>2008-11-27T13:42:15Z</time>
      </trkpt>
      <trkpt lat="47.18293" lon="5.55087">
        <ele>330</ele>
        <time>2008-11-27T13:42:36Z</time>
      </trkpt>
      <trkpt lat="47.18292" lon="5.55078">
        <ele>331</ele>
        <time>2008-11-27T13:43:00Z</time>
      </trkpt>
      <trkpt lat="47.18264" lon="5.55073">
        <ele>332</ele>
        <time>2008-11-27T13:43:25Z</time>
      </trkpt>
      <trkpt lat="47.18258" lon="5.55064">
        <ele>336</ele>
        <time>2008-11-27T13:43:33Z</time>
      </trkpt>
      <trkpt lat="47.18252" lon="5.55062">
        <ele>339</ele>
        <time>2008-11-27T13:43:42Z</time>
      </trkpt>
      <trkpt lat="47.18246" lon="5.55058">
        <ele>342</ele>
        <time>2008-11-27T13:43:57Z</time>
      </trkpt>
      <trkpt lat="47.18241" lon="5.55051">
        <ele>343</ele>
        <time>2008-11-27T13:44:02Z</time>
      </trkpt>
      <trkpt lat="47.18235" lon="5.55042">
        <ele>347</ele>
        <time>2008-11-27T13:44:11Z</time>
      </trkpt>
      <trkpt lat="47.18233" lon="5.55041">
        <ele>347</ele>
        <time>2008-11-27T13:44:12Z</time>
      </trkpt>
      <trkpt lat="47.18233" lon="5.5504">
        <ele>345</ele>
        <time>2008-11-27T13:44:14Z</time>
      </trkpt>
      <trkpt lat="47.18227" lon="5.55031">
        <ele>348</ele>
        <time>2008-11-27T13:44:20Z</time>
      </trkpt>
      <trkpt lat="47.18227" lon="5.55031">
        <ele>348</ele>
        <time>2008-11-27T13:44:21Z</time>
      </trkpt>
      <trkpt lat="47.18202" lon="5.55">
        <ele>351</ele>
        <time>2008-11-27T13:44:45Z</time>
      </trkpt>
      <trkpt lat="47.18201" lon="5.54998">
        <ele>352</ele>
        <time>2008-11-27T13:44:47Z</time>
      </trkpt>
      <trkpt lat="47.18193" lon="5.54986">
        <ele>352</ele>
        <time>2008-11-27T13:45:03Z</time>
      </trkpt>
      <trkpt lat="47.18183" lon="5.54972">
        <ele>352</ele>
        <time>2008-11-27T13:45:20Z</time>
      </trkpt>
      <trkpt lat="47.18177" lon="5.54964">
        <ele>353</ele>
        <time>2008-11-27T13:45:27Z</time>
      </trkpt>
      <trkpt lat="47.1816" lon="5.54941">
        <ele>353</ele>
        <time>2008-11-27T13:45:42Z</time>
      </trkpt>
      <trkpt lat="47.18136" lon="5.54916">
        <ele>353</ele>
        <time>2008-11-27T13:46:02Z</time>
      </trkpt>
      <trkpt lat="47.18119" lon="5.54895">
        <ele>352</ele>
        <time>2008-11-27T13:46:22Z</time>
      </trkpt>
      <trkpt lat="47.18111" lon="5.54886">
        <ele>352</ele>
        <time>2008-11-27T13:46:37Z</time>
      </trkpt>
      <trkpt lat="47.18095" lon="5.54864">
        <ele>352</ele>
        <time>2008-11-27T13:46:56Z</time>
      </trkpt>
      <trkpt lat="47.18077" lon="5.54845">
        <ele>350</ele>
        <time>2008-11-27T13:47:14Z</time>
      </trkpt>
      <trkpt lat="47.18063" lon="5.54828">
        <ele>349</ele>
        <time>2008-11-27T13:47:29Z</time>
      </trkpt>
      <trkpt lat="47.18048" lon="5.54811">
        <ele>348</ele>
        <time>2008-11-27T13:47:46Z</time>
      </trkpt>
      <trkpt lat="47.18024" lon="5.54782">
        <ele>347</ele>
        <time>2008-11-27T13:48:08Z</time>
      </trkpt>
      <trkpt lat="47.18003" lon="5.54758">
        <ele>345</ele>
        <time>2008-11-27T13:48:30Z</time>
      </trkpt>
      <trkpt lat="47.17977" lon="5.54724">
        <ele>344</ele>
        <time>2008-11-27T13:48:53Z</time>
      </trkpt>
      <trkpt lat="47.17967" lon="5.54712">
        <ele>340</ele>
        <time>2008-11-27T13:49:11Z</time>
      </trkpt>
      <trkpt lat="47.17959" lon="5.54706">
        <ele>338</ele>
        <time>2008-11-27T13:49:21Z</time>
      </trkpt>
      <trkpt lat="47.17958" lon="5.54707">
        <ele>337</ele>
        <time>2008-11-27T13:49:23Z</time>
      </trkpt>
      <trkpt lat="47.17952" lon="5.54707">
        <ele>338</ele>
        <time>2008-11-27T13:49:40Z</time>
      </trkpt>
      <trkpt lat="47.17936" lon="5.54694">
        <ele>341</ele>
        <time>2008-11-27T13:50:03Z</time>
      </trkpt>
      <trkpt lat="47.17916" lon="5.54668">
        <ele>344</ele>
        <time>2008-11-27T13:50:24Z</time>
      </trkpt>
      <trkpt lat="47.1789" lon="5.54632">
        <ele>346</ele>
        <time>2008-11-27T13:50:50Z</time>
      </trkpt>
      <trkpt lat="47.17883" lon="5.54612">
        <ele>347</ele>
        <time>2008-11-27T13:51:08Z</time>
      </trkpt>
      <trkpt lat="47.17861" lon="5.54591">
        <ele>345</ele>
        <time>2008-11-27T13:51:25Z</time>
      </trkpt>
      <trkpt lat="47.17846" lon="5.54583">
        <ele>344</ele>
        <time>2008-11-27T13:51:45Z</time>
      </trkpt>
      <trkpt lat="47.17832" lon="5.54567">
        <ele>342</ele>
        <time>2008-11-27T13:52:07Z</time>
      </trkpt>
      <trkpt lat="47.17806" lon="5.54532">
        <ele>341</ele>
        <time>2008-11-27T13:52:28Z</time>
      </trkpt>
      <trkpt lat="47.17784" lon="5.54503">
        <ele>341</ele>
        <time>2008-11-27T13:52:53Z</time>
      </trkpt>
      <trkpt lat="47.17763" lon="5.54477">
        <ele>339</ele>
        <time>2008-11-27T13:53:16Z</time>
      </trkpt>
      <trkpt lat="47.17754" lon="5.54469">
        <ele>336</ele>
        <time>2008-11-27T13:53:28Z</time>
      </trkpt>
      <trkpt lat="47.1775" lon="5.54463">
        <ele>334</ele>
        <time>2008-11-27T13:53:34Z</time>
      </trkpt>
      <trkpt lat="47.17744" lon="5.54459">
        <ele>332</ele>
        <time>2008-11-27T13:53:39Z</time>
      </trkpt>
      <trkpt lat="47.17739" lon="5.54451">
        <ele>329</ele>
        <time>2008-11-27T13:53:47Z</time>
      </trkpt>
      <trkpt lat="47.17736" lon="5.54446">
        <ele>328</ele>
        <time>2008-11-27T13:53:49Z</time>
      </trkpt>
      <trkpt lat="47.17709" lon="5.54406">
        <ele>328</ele>
        <time>2008-11-27T13:54:12Z</time>
      </trkpt>
      <trkpt lat="47.17707" lon="5.54394">
        <ele>328</ele>
        <time>2008-11-27T13:54:35Z</time>
      </trkpt>
      <trkpt lat="47.17681" lon="5.54372">
        <ele>331</ele>
        <time>2008-11-27T13:59:19Z</time>
      </trkpt>
      <trkpt lat="47.17664" lon="5.54342">
        <ele>334</ele>
        <time>2008-11-27T13:59:40Z</time>
      </trkpt>
      <trkpt lat="47.17655" lon="5.54333">
        <ele>336</ele>
        <time>2008-11-27T13:59:55Z</time>
      </trkpt>
      <trkpt lat="47.17633" lon="5.54298">
        <ele>339</ele>
        <time>2008-11-27T14:00:19Z</time>
      </trkpt>
      <trkpt lat="47.17614" lon="5.54267">
        <ele>342</ele>
        <time>2008-11-27T14:00:41Z</time>
      </trkpt>
      <trkpt lat="47.17606" lon="5.5425">
        <ele>343</ele>
        <time>2008-11-27T14:00:53Z</time>
      </trkpt>
      <trkpt lat="47.17592" lon="5.54228">
        <ele>344</ele>
        <time>2008-11-27T14:01:09Z</time>
      </trkpt>
      <trkpt lat="47.17569" lon="5.54195">
        <ele>344</ele>
        <time>2008-11-27T14:01:30Z</time>
      </trkpt>
      <trkpt lat="47.17553" lon="5.54175">
        <ele>343</ele>
        <time>2008-11-27T14:01:45Z</time>
      </trkpt>
      <trkpt lat="47.17528" lon="5.54135">
        <ele>341</ele>
        <time>2008-11-27T14:02:09Z</time>
      </trkpt>
      <trkpt lat="47.17509" lon="5.54106">
        <ele>340</ele>
        <time>2008-11-27T14:02:33Z</time>
      </trkpt>
      <trkpt lat="47.17485" lon="5.54074">
        <ele>339</ele>
        <time>2008-11-27T14:02:58Z</time>
      </trkpt>
      <trkpt lat="47.1747" lon="5.54052">
        <ele>337</ele>
        <time>2008-11-27T14:03:19Z</time>
      </trkpt>
      <trkpt lat="47.17448" lon="5.5402">
        <ele>336</ele>
        <time>2008-11-27T14:03:44Z</time>
      </trkpt>
      <trkpt lat="47.17427" lon="5.53987">
        <ele>334</ele>
        <time>2008-11-27T14:04:05Z</time>
      </trkpt>
      <trkpt lat="47.17409" lon="5.53965">
        <ele>331</ele>
        <time>2008-11-27T14:04:27Z</time>
      </trkpt>
      <trkpt lat="47.174" lon="5.53948">
        <ele>327</ele>
        <time>2008-11-27T14:04:44Z</time>
      </trkpt>
      <trkpt lat="47.17388" lon="5.53928">
        <ele>325</ele>
        <time>2008-11-27T14:05:00Z</time>
      </trkpt>
      <trkpt lat="47.17381" lon="5.53916">
        <ele>321</ele>
        <time>2008-11-27T14:05:11Z</time>
      </trkpt>
      <trkpt lat="47.17357" lon="5.53895">
        <ele>322</ele>
        <time>2008-11-27T14:05:35Z</time>
      </trkpt>
      <trkpt lat="47.17333" lon="5.53859">
        <ele>325</ele>
        <time>2008-11-27T14:05:57Z</time>
      </trkpt>
      <trkpt lat="47.17313" lon="5.53831">
        <ele>326</ele>
        <time>2008-11-27T14:06:23Z</time>
      </trkpt>
      <trkpt lat="47.17296" lon="5.53801">
        <ele>326</ele>
        <time>2008-11-27T14:06:48Z</time>
      </trkpt>
      <trkpt lat="47.17274" lon="5.53771">
        <ele>324</ele>
        <time>2008-11-27T14:07:11Z</time>
      </trkpt>
      <trkpt lat="47.17264" lon="5.53751">
        <ele>320</ele>
        <time>2008-11-27T14:07:26Z</time>
      </trkpt>
      <trkpt lat="47.17251" lon="5.53738">
        <ele>317</ele>
        <time>2008-11-27T14:07:41Z</time>
      </trkpt>
      <trkpt lat="47.17239" lon="5.53711">
        <ele>316</ele>
        <time>2008-11-27T14:08:05Z</time>
      </trkpt>
      <trkpt lat="47.17239" lon="5.53708">
        <ele>319</ele>
        <time>2008-11-27T14:08:24Z</time>
      </trkpt>
      <trkpt lat="47.17237" lon="5.53707">
        <ele>322</ele>
        <time>2008-11-27T14:08:37Z</time>
      </trkpt>
      <trkpt lat="47.1723" lon="5.53697">
        <ele>326</ele>
        <time>2008-11-27T14:08:52Z</time>
      </trkpt>
      <trkpt lat="47.17227" lon="5.53691">
        <ele>328</ele>
        <time>2008-11-27T14:09:08Z</time>
      </trkpt>
      <trkpt lat="47.17226" lon="5.53689">
        <ele>330</ele>
        <time>2008-11-27T14:09:17Z</time>
      </trkpt>
      <trkpt lat="47.17224" lon="5.53687">
        <ele>333</ele>
        <time>2008-11-27T14:09:32Z</time>
      </trkpt>
      <trkpt lat="47.17219" lon="5.53674">
        <ele>336</ele>
        <time>2008-11-27T14:10:05Z</time>
      </trkpt>
      <trkpt lat="47.17211" lon="5.5366">
        <ele>339</ele>
        <time>2008-11-27T14:10:31Z</time>
      </trkpt>
      <trkpt lat="47.17175" lon="5.53607">
        <ele>343</ele>
        <time>2008-11-27T14:10:56Z</time>
      </trkpt>
      <trkpt lat="47.17165" lon="5.53589">
        <ele>344</ele>
        <time>2008-11-27T14:11:16Z</time>
      </trkpt>
      <trkpt lat="47.17149" lon="5.53575">
        <ele>344</ele>
        <time>2008-11-27T14:11:33Z</time>
      </trkpt>
      <trkpt lat="47.17147" lon="5.53569">
        <ele>343</ele>
        <time>2008-11-27T14:12:16Z</time>
      </trkpt>
      <trkpt lat="47.17106" lon="5.53534">
        <ele>341</ele>
        <time>2008-11-27T14:14:26Z</time>
      </trkpt>
      <trkpt lat="47.17089" lon="5.53512">
        <ele>341</ele>
        <time>2008-11-27T14:14:45Z</time>
      </trkpt>
      <trkpt lat="47.1707" lon="5.53476">
        <ele>339</ele>
        <time>2008-11-27T14:15:07Z</time>
      </trkpt>
      <trkpt lat="47.17047" lon="5.53446">
        <ele>338</ele>
        <time>2008-11-27T14:15:30Z</time>
      </trkpt>
      <trkpt lat="47.17022" lon="5.53408">
        <ele>336</ele>
        <time>2008-11-27T14:15:51Z</time>
      </trkpt>
      <trkpt lat="47.16995" lon="5.53369">
        <ele>333</ele>
        <time>2008-11-27T14:16:14Z</time>
      </trkpt>
      <trkpt lat="47.16976" lon="5.53343">
        <ele>330</ele>
        <time>2008-11-27T14:16:33Z</time>
      </trkpt>
      <trkpt lat="47.16957" lon="5.53327">
        <ele>328</ele>
        <time>2008-11-27T14:16:51Z</time>
      </trkpt>
      <trkpt lat="47.16952" lon="5.53334">
        <ele>328</ele>
        <time>2008-11-27T14:16:57Z</time>
      </trkpt>
      <trkpt lat="47.16948" lon="5.53341">
        <ele>327</ele>
        <time>2008-11-27T14:17:02Z</time>
      </trkpt>
      <trkpt lat="47.1693" lon="5.53363">
        <ele>327</ele>
        <time>2008-11-27T14:17:17Z</time>
      </trkpt>
      <trkpt lat="47.16906" lon="5.53395">
        <ele>326</ele>
        <time>2008-11-27T14:17:41Z</time>
      </trkpt>
      <trkpt lat="47.1689" lon="5.53419">
        <ele>325</ele>
        <time>2008-11-27T14:17:58Z</time>
      </trkpt>
      <trkpt lat="47.16875" lon="5.53435">
        <ele>326</ele>
        <time>2008-11-27T14:18:14Z</time>
      </trkpt>
      <trkpt lat="47.16861" lon="5.53463">
        <ele>325</ele>
        <time>2008-11-27T14:18:30Z</time>
      </trkpt>
      <trkpt lat="47.16855" lon="5.5347">
        <ele>325</ele>
        <time>2008-11-27T14:18:35Z</time>
      </trkpt>
      <trkpt lat="47.16853" lon="5.53471">
        <ele>325</ele>
        <time>2008-11-27T14:18:37Z</time>
      </trkpt>
      <trkpt lat="47.16844" lon="5.53486">
        <ele>325</ele>
        <time>2008-11-27T14:18:47Z</time>
      </trkpt>
      <trkpt lat="47.16839" lon="5.53495">
        <ele>325</ele>
        <time>2008-11-27T14:18:53Z</time>
      </trkpt>
      <trkpt lat="47.16835" lon="5.53501">
        <ele>324</ele>
        <time>2008-11-27T14:18:58Z</time>
      </trkpt>
      <trkpt lat="47.1683" lon="5.53504">
        <ele>324</ele>
        <time>2008-11-27T14:19:01Z</time>
      </trkpt>
      <trkpt lat="47.16823" lon="5.53522">
        <ele>323</ele>
        <time>2008-11-27T14:19:11Z</time>
      </trkpt>
      <trkpt lat="47.16819" lon="5.53529">
        <ele>322</ele>
        <time>2008-11-27T14:19:16Z</time>
      </trkpt>
      <trkpt lat="47.16797" lon="5.53554">
        <ele>321</ele>
        <time>2008-11-27T14:19:38Z</time>
      </trkpt>
      <trkpt lat="47.16774" lon="5.53569">
        <ele>319</ele>
        <time>2008-11-27T14:19:58Z</time>
      </trkpt>
      <trkpt lat="47.16764" lon="5.53588">
        <ele>318</ele>
        <time>2008-11-27T14:20:15Z</time>
      </trkpt>
      <trkpt lat="47.16738" lon="5.53589">
        <ele>315</ele>
        <time>2008-11-27T14:20:39Z</time>
      </trkpt>
      <trkpt lat="47.16712" lon="5.53591">
        <ele>313</ele>
        <time>2008-11-27T14:20:59Z</time>
      </trkpt>
      <trkpt lat="47.16687" lon="5.53593">
        <ele>310</ele>
        <time>2008-11-27T14:21:19Z</time>
      </trkpt>
      <trkpt lat="47.16672" lon="5.53602">
        <ele>307</ele>
        <time>2008-11-27T14:21:34Z</time>
      </trkpt>
      <trkpt lat="47.16656" lon="5.53609">
        <ele>305</ele>
        <time>2008-11-27T14:21:48Z</time>
      </trkpt>
      <trkpt lat="47.16646" lon="5.53615">
        <ele>305</ele>
        <time>2008-11-27T14:22:04Z</time>
      </trkpt>
      <trkpt lat="47.1665" lon="5.53629">
        <ele>306</ele>
        <time>2008-11-27T14:22:12Z</time>
      </trkpt>
      <trkpt lat="47.16661" lon="5.53653">
        <ele>310</ele>
        <time>2008-11-27T14:22:31Z</time>
      </trkpt>
      <trkpt lat="47.16675" lon="5.53674">
        <ele>311</ele>
        <time>2008-11-27T14:22:51Z</time>
      </trkpt>
      <trkpt lat="47.16682" lon="5.53686">
        <ele>311</ele>
        <time>2008-11-27T14:23:14Z</time>
      </trkpt>
      <trkpt lat="47.16693" lon="5.53707">
        <ele>314</ele>
        <time>2008-11-27T14:23:29Z</time>
      </trkpt>
      <trkpt lat="47.16709" lon="5.53728">
        <ele>318</ele>
        <time>2008-11-27T14:23:50Z</time>
      </trkpt>
      <trkpt lat="47.1671" lon="5.53728">
        <ele>318</ele>
        <time>2008-11-27T14:23:51Z</time>
      </trkpt>
      <trkpt lat="47.16716" lon="5.53745">
        <ele>320</ele>
        <time>2008-11-27T14:24:07Z</time>
      </trkpt>
      <trkpt lat="47.16733" lon="5.53759">
        <ele>322</ele>
        <time>2008-11-27T14:24:27Z</time>
      </trkpt>
      <trkpt lat="47.1674" lon="5.53771">
        <ele>324</ele>
        <time>2008-11-27T14:24:42Z</time>
      </trkpt>
      <trkpt lat="47.16755" lon="5.53794">
        <ele>326</ele>
        <time>2008-11-27T14:25:05Z</time>
      </trkpt>
      <trkpt lat="47.16766" lon="5.53821">
        <ele>328</ele>
        <time>2008-11-27T14:25:28Z</time>
      </trkpt>
      <trkpt lat="47.16781" lon="5.53835">
        <ele>329</ele>
        <time>2008-11-27T14:25:44Z</time>
      </trkpt>
      <trkpt lat="47.16799" lon="5.53858">
        <ele>331</ele>
        <time>2008-11-27T14:26:03Z</time>
      </trkpt>
      <trkpt lat="47.16818" lon="5.53887">
        <ele>334</ele>
        <time>2008-11-27T14:26:28Z</time>
      </trkpt>
      <trkpt lat="47.16832" lon="5.5391">
        <ele>336</ele>
        <time>2008-11-27T14:26:49Z</time>
      </trkpt>
      <trkpt lat="47.16846" lon="5.53927">
        <ele>337</ele>
        <time>2008-11-27T14:27:09Z</time>
      </trkpt>
      <trkpt lat="47.16863" lon="5.53952">
        <ele>339</ele>
        <time>2008-11-27T14:27:32Z</time>
      </trkpt>
      <trkpt lat="47.16881" lon="5.53979">
        <ele>339</ele>
        <time>2008-11-27T14:27:54Z</time>
      </trkpt>
      <trkpt lat="47.16891" lon="5.54002">
        <ele>340</ele>
        <time>2008-11-27T14:28:17Z</time>
      </trkpt>
      <trkpt lat="47.16881" lon="5.54011">
        <ele>340</ele>
        <time>2008-11-27T14:28:38Z</time>
      </trkpt>
      <trkpt lat="47.16867" lon="5.5404">
        <ele>339</ele>
        <time>2008-11-27T14:28:59Z</time>
      </trkpt>
      <trkpt lat="47.16852" lon="5.54061">
        <ele>337</ele>
        <time>2008-11-27T14:29:20Z</time>
      </trkpt>
      <trkpt lat="47.16834" lon="5.54087">
        <ele>336</ele>
        <time>2008-11-27T14:29:39Z</time>
      </trkpt>
      <trkpt lat="47.16817" lon="5.54111">
        <ele>335</ele>
        <time>2008-11-27T14:30:00Z</time>
      </trkpt>
      <trkpt lat="47.16803" lon="5.54138">
        <ele>333</ele>
        <time>2008-11-27T14:30:22Z</time>
      </trkpt>
      <trkpt lat="47.16788" lon="5.54158">
        <ele>330</ele>
        <time>2008-11-27T14:30:43Z</time>
      </trkpt>
      <trkpt lat="47.16775" lon="5.54181">
        <ele>327</ele>
        <time>2008-11-27T14:30:59Z</time>
      </trkpt>
      <trkpt lat="47.16765" lon="5.542">
        <ele>324</ele>
        <time>2008-11-27T14:31:14Z</time>
      </trkpt>
      <trkpt lat="47.16751" lon="5.54226">
        <ele>321</ele>
        <time>2008-11-27T14:31:33Z</time>
      </trkpt>
      <trkpt lat="47.16739" lon="5.54237">
        <ele>318</ele>
        <time>2008-11-27T14:31:51Z</time>
      </trkpt>
      <trkpt lat="47.16732" lon="5.54252">
        <ele>314</ele>
        <time>2008-11-27T14:32:04Z</time>
      </trkpt>
      <trkpt lat="47.16722" lon="5.54266">
        <ele>311</ele>
        <time>2008-11-27T14:32:14Z</time>
      </trkpt>
      <trkpt lat="47.16713" lon="5.5428">
        <ele>308</ele>
        <time>2008-11-27T14:32:22Z</time>
      </trkpt>
      <trkpt lat="47.16706" lon="5.5429">
        <ele>305</ele>
        <time>2008-11-27T14:32:33Z</time>
      </trkpt>
      <trkpt lat="47.16696" lon="5.54299">
        <ele>302</ele>
        <time>2008-11-27T14:32:47Z</time>
      </trkpt>
      <trkpt lat="47.1669" lon="5.5431">
        <ele>298</ele>
        <time>2008-11-27T14:33:00Z</time>
      </trkpt>
      <trkpt lat="47.16683" lon="5.54319">
        <ele>295</ele>
        <time>2008-11-27T14:33:12Z</time>
      </trkpt>
      <trkpt lat="47.16677" lon="5.54327">
        <ele>294</ele>
        <time>2008-11-27T14:33:16Z</time>
      </trkpt>
      <trkpt lat="47.16683" lon="5.54343">
        <ele>288.158661</ele>
        <time>2008-11-27T14:33:20Z</time>
      </trkpt>
      <trkpt lat="47.16695" lon="5.54363">
        <ele>284.723572</ele>
        <time>2008-11-27T14:33:36Z</time>
      </trkpt>
      <trkpt lat="47.16707" lon="5.54381">
        <ele>281.84259</ele>
        <time>2008-11-27T14:33:51Z</time>
      </trkpt>
      <trkpt lat="47.1672" lon="5.54394">
        <ele>292</ele>
        <time>2008-11-27T14:34:07Z</time>
      </trkpt>
      <trkpt lat="47.16732" lon="5.54407">
        <ele>289</ele>
        <time>2008-11-27T14:34:20Z</time>
      </trkpt>
      <trkpt lat="47.16738" lon="5.54419">
        <ele>286</ele>
        <time>2008-11-27T14:34:30Z</time>
      </trkpt>
      <trkpt lat="47.16747" lon="5.54426">
        <ele>283</ele>
        <time>2008-11-27T14:34:41Z</time>
      </trkpt>
      <trkpt lat="47.16749" lon="5.54427">
        <ele>281</ele>
        <time>2008-11-27T14:34:46Z</time>
      </trkpt>
      <trkpt lat="47.16752" lon="5.54432">
        <ele>277</ele>
        <time>2008-11-27T14:34:56Z</time>
      </trkpt>
      <trkpt lat="47.16753" lon="5.54433">
        <ele>277</ele>
        <time>2008-11-27T14:34:58Z</time>
      </trkpt>
      <trkpt lat="47.16755" lon="5.54435">
        <ele>276</ele>
        <time>2008-11-27T14:35:02Z</time>
      </trkpt>
      <trkpt lat="47.16759" lon="5.54436">
        <ele>274</ele>
        <time>2008-11-27T14:35:06Z</time>
      </trkpt>
      <trkpt lat="47.16769" lon="5.54442">
        <ele>271</ele>
        <time>2008-11-27T14:35:15Z</time>
      </trkpt>
      <trkpt lat="47.16785" lon="5.54471">
        <ele>269</ele>
        <time>2008-11-27T14:35:36Z</time>
      </trkpt>
      <trkpt lat="47.16789" lon="5.54497">
        <ele>272</ele>
        <time>2008-11-27T14:35:59Z</time>
      </trkpt>
      <trkpt lat="47.1679" lon="5.545">
        <ele>273</ele>
        <time>2008-11-27T14:36:02Z</time>
      </trkpt>
      <trkpt lat="47.16789" lon="5.54507">
        <ele>274</ele>
        <time>2008-11-27T14:36:06Z</time>
      </trkpt>
      <trkpt lat="47.16795" lon="5.54515">
        <ele>277</ele>
        <time>2008-11-27T14:36:16Z</time>
      </trkpt>
      <trkpt lat="47.16801" lon="5.54509">
        <ele>280</ele>
        <time>2008-11-27T14:36:29Z</time>
      </trkpt>
      <trkpt lat="47.16819" lon="5.54508">
        <ele>284</ele>
        <time>2008-11-27T14:36:47Z</time>
      </trkpt>
      <trkpt lat="47.16825" lon="5.54523">
        <ele>287</ele>
        <time>2008-11-27T14:37:01Z</time>
      </trkpt>
      <trkpt lat="47.16829" lon="5.5454">
        <ele>290</ele>
        <time>2008-11-27T14:37:17Z</time>
      </trkpt>
      <trkpt lat="47.16831" lon="5.54558">
        <ele>293</ele>
        <time>2008-11-27T14:37:32Z</time>
      </trkpt>
      <trkpt lat="47.16839" lon="5.54569">
        <ele>297</ele>
        <time>2008-11-27T14:37:44Z</time>
      </trkpt>
      <trkpt lat="47.16839" lon="5.54578">
        <ele>299</ele>
        <time>2008-11-27T14:37:59Z</time>
      </trkpt>
      <trkpt lat="47.1683" lon="5.54611">
        <ele>301</ele>
        <time>2008-11-27T14:38:17Z</time>
      </trkpt>
      <trkpt lat="47.16816" lon="5.5463">
        <ele>303</ele>
        <time>2008-11-27T14:38:37Z</time>
      </trkpt>
      <trkpt lat="47.16806" lon="5.54629">
        <ele>305</ele>
        <time>2008-11-27T14:38:54Z</time>
      </trkpt>
      <trkpt lat="47.16793" lon="5.54653">
        <ele>307</ele>
        <time>2008-11-27T14:39:19Z</time>
      </trkpt>
      <trkpt lat="47.16787" lon="5.54655">
        <ele>307</ele>
        <time>2008-11-27T14:39:55Z</time>
      </trkpt>
      <trkpt lat="47.16781" lon="5.54668">
        <ele>307</ele>
        <time>2008-11-27T14:41:09Z</time>
      </trkpt>
      <trkpt lat="47.16782" lon="5.54684">
        <ele>306</ele>
        <time>2008-11-27T14:43:38Z</time>
      </trkpt>
      <trkpt lat="47.16766" lon="5.54672">
        <ele>306</ele>
        <time>2008-11-27T14:45:27Z</time>
      </trkpt>
      <trkpt lat="47.16757" lon="5.54676">
        <ele>316.897644</ele>
        <time>2008-11-27T14:46:54Z</time>
      </trkpt>
      <trkpt lat="47.16738" lon="5.54673">
        <ele>314.964996</ele>
        <time>2008-11-27T14:47:13Z</time>
      </trkpt>
      <trkpt lat="47.16717" lon="5.54687">
        <ele>315.86499</ele>
        <time>2008-11-27T14:47:49Z</time>
      </trkpt>
      <trkpt lat="47.16696" lon="5.54679">
        <ele>312.396271</ele>
        <time>2008-11-27T14:48:06Z</time>
      </trkpt>
      <trkpt lat="47.16669" lon="5.54684">
        <ele>310.130524</ele>
        <time>2008-11-27T14:48:27Z</time>
      </trkpt>
      <trkpt lat="47.16646" lon="5.54684">
        <ele>297</ele>
        <time>2008-11-27T14:48:42Z</time>
      </trkpt>
      <trkpt lat="47.16631" lon="5.54686">
        <ele>304.001984</ele>
        <time>2008-11-27T14:49:01Z</time>
      </trkpt>
      <trkpt lat="47.16623" lon="5.54683">
        <ele>301.952057</ele>
        <time>2008-11-27T14:49:17Z</time>
      </trkpt>
      <trkpt lat="47.16608" lon="5.54685">
        <ele>299.945099</ele>
        <time>2008-11-27T14:49:33Z</time>
      </trkpt>
      <trkpt lat="47.16591" lon="5.54676">
        <ele>296.208679</ele>
        <time>2008-11-27T14:49:48Z</time>
      </trkpt>
      <trkpt lat="47.16559" lon="5.54661">
        <ele>289.34552</ele>
        <time>2008-11-27T14:50:26Z</time>
      </trkpt>
      <trkpt lat="47.16538" lon="5.54654">
        <ele>285.292816</ele>
        <time>2008-11-27T14:50:42Z</time>
      </trkpt>
      <trkpt lat="47.16514" lon="5.54643">
        <ele>279.803375</ele>
        <time>2008-11-27T14:51:01Z</time>
      </trkpt>
      <trkpt lat="47.16504" lon="5.54654">
        <ele>278.913116</ele>
        <time>2008-11-27T14:51:04Z</time>
      </trkpt>
      <trkpt lat="47.16493" lon="5.54663">
        <ele>277.340942</ele>
        <time>2008-11-27T14:51:17Z</time>
      </trkpt>
      <trkpt lat="47.16488" lon="5.54689">
        <ele>278.442078</ele>
        <time>2008-11-27T14:51:35Z</time>
      </trkpt>
      <trkpt lat="47.16484" lon="5.54712">
        <ele>276.445801</ele>
        <time>2008-11-27T14:52:13Z</time>
      </trkpt>
      <trkpt lat="47.16485" lon="5.54737">
        <ele>269</ele>
        <time>2008-11-27T14:52:18Z</time>
      </trkpt>
      <trkpt lat="47.1648" lon="5.54773">
        <ele>267</ele>
        <time>2008-11-27T14:52:32Z</time>
      </trkpt>
      <trkpt lat="47.16481" lon="5.548">
        <ele>264</ele>
        <time>2008-11-27T14:52:48Z</time>
      </trkpt>
      <trkpt lat="47.16485" lon="5.5482">
        <ele>262</ele>
        <time>2008-11-27T14:53:04Z</time>
      </trkpt>
      <trkpt lat="47.16487" lon="5.54843">
        <ele>258</ele>
        <time>2008-11-27T14:53:18Z</time>
      </trkpt>
      <trkpt lat="47.165" lon="5.54853">
        <ele>260</ele>
        <time>2008-11-27T14:53:36Z</time>
      </trkpt>
      <trkpt lat="47.16515" lon="5.54876">
        <ele>264.184692</ele>
        <time>2008-11-27T14:53:52Z</time>
      </trkpt>
      <trkpt lat="47.16535" lon="5.54893">
        <ele>265.04248</ele>
        <time>2008-11-27T14:54:11Z</time>
      </trkpt>
      <trkpt lat="47.16558" lon="5.54903">
        <ele>267.967499</ele>
        <time>2008-11-27T14:54:51Z</time>
      </trkpt>
      <trkpt lat="47.16581" lon="5.54921">
        <ele>271.552032</ele>
        <time>2008-11-27T14:55:20Z</time>
      </trkpt>
      <trkpt lat="47.16596" lon="5.54927">
        <ele>274.441132</ele>
        <time>2008-11-27T14:55:41Z</time>
      </trkpt>
      <trkpt lat="47.16609" lon="5.54936">
        <ele>276.476257</ele>
        <time>2008-11-27T14:56:04Z</time>
      </trkpt>
      <trkpt lat="47.16623" lon="5.54945">
        <ele>280.721069</ele>
        <time>2008-11-27T14:56:12Z</time>
      </trkpt>
      <trkpt lat="47.16629" lon="5.54982">
        <ele>279.033539</ele>
        <time>2008-11-27T14:56:55Z</time>
      </trkpt>
      <trkpt lat="47.16638" lon="5.5501">
        <ele>279.84613</ele>
        <time>2008-11-27T14:57:15Z</time>
      </trkpt>
      <trkpt lat="47.16647" lon="5.5504">
        <ele>280.159637</ele>
        <time>2008-11-27T14:57:26Z</time>
      </trkpt>
      <trkpt lat="47.16658" lon="5.55058">
        <ele>283.482971</ele>
        <time>2008-11-27T14:57:41Z</time>
      </trkpt>
      <trkpt lat="47.16669" lon="5.55083">
        <ele>285.668915</ele>
        <time>2008-11-27T14:58:01Z</time>
      </trkpt>
      <trkpt lat="47.16679" lon="5.55098">
        <ele>287.720428</ele>
        <time>2008-11-27T14:58:20Z</time>
      </trkpt>
      <trkpt lat="47.16683" lon="5.55114">
        <ele>288.47406</ele>
        <time>2008-11-27T14:58:58Z</time>
      </trkpt>
      <trkpt lat="47.16688" lon="5.55127">
        <ele>289.095795</ele>
        <time>2008-11-27T14:59:19Z</time>
      </trkpt>
      <trkpt lat="47.16701" lon="5.55151">
        <ele>290.35022</ele>
        <time>2008-11-27T14:59:42Z</time>
      </trkpt>
      <trkpt lat="47.16709" lon="5.5517">
        <ele>290.415314</ele>
        <time>2008-11-27T14:59:57Z</time>
      </trkpt>
      <trkpt lat="47.16723" lon="5.55199">
        <ele>289</ele>
        <time>2008-11-27T15:00:19Z</time>
      </trkpt>
      <trkpt lat="47.16717" lon="5.55221">
        <ele>286</ele>
        <time>2008-11-27T15:00:41Z</time>
      </trkpt>
      <trkpt lat="47.16713" lon="5.55247">
        <ele>284</ele>
        <time>2008-11-27T15:01:10Z</time>
      </trkpt>
      <trkpt lat="47.1673" lon="5.55298">
        <ele>282</ele>
        <time>2008-11-27T15:01:32Z</time>
      </trkpt>
      <trkpt lat="47.16739" lon="5.55319">
        <ele>281</ele>
        <time>2008-11-27T15:01:45Z</time>
      </trkpt>
      <trkpt lat="47.16747" lon="5.5534">
        <ele>280</ele>
        <time>2008-11-27T15:02:00Z</time>
      </trkpt>
      <trkpt lat="47.1675" lon="5.55374">
        <ele>279</ele>
        <time>2008-11-27T15:02:13Z</time>
      </trkpt>
      <trkpt lat="47.16755" lon="5.55383">
        <ele>279</ele>
        <time>2008-11-27T15:02:19Z</time>
      </trkpt>
      <trkpt lat="47.16762" lon="5.55402">
        <ele>278</ele>
        <time>2008-11-27T15:02:34Z</time>
      </trkpt>
      <trkpt lat="47.16762" lon="5.55409">
        <ele>277</ele>
        <time>2008-11-27T15:02:38Z</time>
      </trkpt>
      <trkpt lat="47.1676" lon="5.55438">
        <ele>275</ele>
        <time>2008-11-27T15:02:53Z</time>
      </trkpt>
      <trkpt lat="47.16751" lon="5.55462">
        <ele>272</ele>
        <time>2008-11-27T15:03:07Z</time>
      </trkpt>
      <trkpt lat="47.16746" lon="5.55491">
        <ele>268</ele>
        <time>2008-11-27T15:03:22Z</time>
      </trkpt>
      <trkpt lat="47.1674" lon="5.55512">
        <ele>265</ele>
        <time>2008-11-27T15:03:39Z</time>
      </trkpt>
      <trkpt lat="47.16732" lon="5.55534">
        <ele>262</ele>
        <time>2008-11-27T15:03:53Z</time>
      </trkpt>
      <trkpt lat="47.16728" lon="5.5554">
        <ele>259</ele>
        <time>2008-11-27T15:04:11Z</time>
      </trkpt>
      <trkpt lat="47.1672" lon="5.55562">
        <ele>257</ele>
        <time>2008-11-27T15:04:29Z</time>
      </trkpt>
      <trkpt lat="47.16709" lon="5.5561">
        <ele>254</ele>
        <time>2008-11-27T15:04:48Z</time>
      </trkpt>
      <trkpt lat="47.16705" lon="5.55629">
        <ele>252</ele>
        <time>2008-11-27T15:05:04Z</time>
      </trkpt>
      <trkpt lat="47.16699" lon="5.55666">
        <ele>251</ele>
        <time>2008-11-27T15:05:22Z</time>
      </trkpt>
      <trkpt lat="47.16692" lon="5.55703">
        <ele>249</ele>
        <time>2008-11-27T15:05:40Z</time>
      </trkpt>
      <trkpt lat="47.16688" lon="5.55741">
        <ele>248</ele>
        <time>2008-11-27T15:05:58Z</time>
      </trkpt>
      <trkpt lat="47.16685" lon="5.55755">
        <ele>247</ele>
        <time>2008-11-27T15:06:01Z</time>
      </trkpt>
      <trkpt lat="47.1668" lon="5.55784">
        <ele>245</ele>
        <time>2008-11-27T15:06:15Z</time>
      </trkpt>
      <trkpt lat="47.16674" lon="5.5581">
        <ele>243</ele>
        <time>2008-11-27T15:06:29Z</time>
      </trkpt>
      <trkpt lat="47.16671" lon="5.55833">
        <ele>242</ele>
        <time>2008-11-27T15:06:44Z</time>
      </trkpt>
      <trkpt lat="47.16664" lon="5.55871">
        <ele>240</ele>
        <time>2008-11-27T15:07:03Z</time>
      </trkpt>
      <trkpt lat="47.16657" lon="5.55899">
        <ele>237</ele>
        <time>2008-11-27T15:07:19Z</time>
      </trkpt>
      <trkpt lat="47.16652" lon="5.55913">
        <ele>236</ele>
        <time>2008-11-27T15:07:27Z</time>
      </trkpt>
      <trkpt lat="47.1665" lon="5.55921">
        <ele>236</ele>
        <time>2008-11-27T15:07:32Z</time>
      </trkpt>
      <trkpt lat="47.16644" lon="5.55942">
        <ele>234</ele>
        <time>2008-11-27T15:07:46Z</time>
      </trkpt>
      <trkpt lat="47.16639" lon="5.55952">
        <ele>233</ele>
        <time>2008-11-27T15:08:00Z</time>
      </trkpt>
      <trkpt lat="47.16631" lon="5.55976">
        <ele>231</ele>
        <time>2008-11-27T15:08:14Z</time>
      </trkpt>
      <trkpt lat="47.16627" lon="5.55987">
        <ele>230</ele>
        <time>2008-11-27T15:08:22Z</time>
      </trkpt>
      <trkpt lat="47.16621" lon="5.56">
        <ele>230</ele>
        <time>2008-11-27T15:08:28Z</time>
      </trkpt>
      <trkpt lat="47.16617" lon="5.56008">
        <ele>229</ele>
        <time>2008-11-27T15:08:34Z</time>
      </trkpt>
      <trkpt lat="47.16604" lon="5.56035">
        <ele>227</ele>
        <time>2008-11-27T15:08:51Z</time>
      </trkpt>
      <trkpt lat="47.16599" lon="5.56051">
        <ele>227</ele>
        <time>2008-11-27T15:09:02Z</time>
      </trkpt>
      <trkpt lat="47.16588" lon="5.56071">
        <ele>225</ele>
        <time>2008-11-27T15:09:16Z</time>
      </trkpt>
      <trkpt lat="47.16578" lon="5.56092">
        <ele>224</ele>
        <time>2008-11-27T15:09:31Z</time>
      </trkpt>
      <trkpt lat="47.16573" lon="5.56104">
        <ele>224</ele>
        <time>2008-11-27T15:09:39Z</time>
      </trkpt>
      <trkpt lat="47.16565" lon="5.56129">
        <ele>223</ele>
        <time>2008-11-27T15:09:54Z</time>
      </trkpt>
      <trkpt lat="47.16562" lon="5.56142">
        <ele>222</ele>
        <time>2008-11-27T15:10:08Z</time>
      </trkpt>
      <trkpt lat="47.16557" lon="5.56158">
        <ele>222</ele>
        <time>2008-11-27T15:10:17Z</time>
      </trkpt>
      <trkpt lat="47.1655" lon="5.56176">
        <ele>221</ele>
        <time>2008-11-27T15:10:28Z</time>
      </trkpt>
      <trkpt lat="47.16547" lon="5.56183">
        <ele>221</ele>
        <time>2008-11-27T15:10:33Z</time>
      </trkpt>
      <trkpt lat="47.16536" lon="5.56209">
        <ele>220</ele>
        <time>2008-11-27T15:10:47Z</time>
      </trkpt>
      <trkpt lat="47.1653" lon="5.56232">
        <ele>219</ele>
        <time>2008-11-27T15:11:01Z</time>
      </trkpt>
      <trkpt lat="47.16528" lon="5.56236">
        <ele>219</ele>
        <time>2008-11-27T15:11:03Z</time>
      </trkpt>
      <trkpt lat="47.16525" lon="5.56246">
        <ele>219</ele>
        <time>2008-11-27T15:11:08Z</time>
      </trkpt>
      <trkpt lat="47.16513" lon="5.56268">
        <ele>217</ele>
        <time>2008-11-27T15:11:22Z</time>
      </trkpt>
      <trkpt lat="47.16507" lon="5.56273">
        <ele>216</ele>
        <time>2008-11-27T15:11:36Z</time>
      </trkpt>
      <trkpt lat="47.16506" lon="5.56276">
        <ele>217</ele>
        <time>2008-11-27T15:16:32Z</time>
      </trkpt>
      <trkpt lat="47.16502" lon="5.5631">
        <ele>217</ele>
        <time>2008-11-27T15:16:45Z</time>
      </trkpt>
      <trkpt lat="47.16489" lon="5.56344">
        <ele>217</ele>
        <time>2008-11-27T15:17:03Z</time>
      </trkpt>
      <trkpt lat="47.16486" lon="5.56349">
        <ele>217</ele>
        <time>2008-11-27T15:17:08Z</time>
      </trkpt>
      <trkpt lat="47.16476" lon="5.56376">
        <ele>218</ele>
        <time>2008-11-27T15:17:22Z</time>
      </trkpt>
      <trkpt lat="47.16466" lon="5.56393">
        <ele>218</ele>
        <time>2008-11-27T15:17:35Z</time>
      </trkpt>
      <trkpt lat="47.16462" lon="5.56399">
        <ele>218</ele>
        <time>2008-11-27T15:17:38Z</time>
      </trkpt>
      <trkpt lat="47.16459" lon="5.56409">
        <ele>218</ele>
        <time>2008-11-27T15:17:44Z</time>
      </trkpt>
      <trkpt lat="47.16451" lon="5.56428">
        <ele>219</ele>
        <time>2008-11-27T15:17:56Z</time>
      </trkpt>
      <trkpt lat="47.16452" lon="5.56429">
        <ele>219</ele>
        <time>2008-11-27T15:17:57Z</time>
      </trkpt>
      <trkpt lat="47.16454" lon="5.56446">
        <ele>221</ele>
        <time>2008-11-27T15:18:05Z</time>
      </trkpt>
      <trkpt lat="47.16462" lon="5.56468">
        <ele>221</ele>
        <time>2008-11-27T15:18:20Z</time>
      </trkpt>
      <trkpt lat="47.16462" lon="5.56469">
        <ele>221</ele>
        <time>2008-11-27T15:18:21Z</time>
      </trkpt>
      <trkpt lat="47.16477" lon="5.56479">
        <ele>222</ele>
        <time>2008-11-27T15:18:37Z</time>
      </trkpt>
      <trkpt lat="47.16506" lon="5.56486">
        <ele>223</ele>
        <time>2008-11-27T15:19:00Z</time>
      </trkpt>
      <trkpt lat="47.16524" lon="5.56492">
        <ele>224</ele>
        <time>2008-11-27T15:19:15Z</time>
      </trkpt>
      <trkpt lat="47.16538" lon="5.56505">
        <ele>225</ele>
        <time>2008-11-27T15:19:28Z</time>
      </trkpt>
      <trkpt lat="47.16553" lon="5.56513">
        <ele>225</ele>
        <time>2008-11-27T15:19:40Z</time>
      </trkpt>
      <trkpt lat="47.16556" lon="5.56518">
        <ele>225</ele>
        <time>2008-11-27T15:19:44Z</time>
      </trkpt>
      <trkpt lat="47.16559" lon="5.56521">
        <ele>226</ele>
        <time>2008-11-27T15:19:47Z</time>
      </trkpt>
      <trkpt lat="47.16561" lon="5.56528">
        <ele>225</ele>
        <time>2008-11-27T15:19:51Z</time>
      </trkpt>
      <trkpt lat="47.16565" lon="5.56556">
        <ele>225</ele>
        <time>2008-11-27T15:20:07Z</time>
      </trkpt>
      <trkpt lat="47.16561" lon="5.56567">
        <ele>225</ele>
        <time>2008-11-27T15:20:12Z</time>
      </trkpt>
      <trkpt lat="47.1655" lon="5.56598">
        <ele>224</ele>
        <time>2008-11-27T15:20:28Z</time>
      </trkpt>
      <trkpt lat="47.16545" lon="5.56631">
        <ele>225</ele>
        <time>2008-11-27T15:20:44Z</time>
      </trkpt>
      <trkpt lat="47.16541" lon="5.56661">
        <ele>224</ele>
        <time>2008-11-27T15:21:01Z</time>
      </trkpt>
      <trkpt lat="47.16538" lon="5.56694">
        <ele>226</ele>
        <time>2008-11-27T15:21:18Z</time>
      </trkpt>
      <trkpt lat="47.16534" lon="5.5672">
        <ele>226</ele>
        <time>2008-11-27T15:21:32Z</time>
      </trkpt>
      <trkpt lat="47.16535" lon="5.5675">
        <ele>226</ele>
        <time>2008-11-27T15:21:47Z</time>
      </trkpt>
      <trkpt lat="47.16539" lon="5.56753">
        <ele>227</ele>
        <time>2008-11-27T15:21:51Z</time>
      </trkpt>
      <trkpt lat="47.16549" lon="5.56761">
        <ele>227</ele>
        <time>2008-11-27T15:22:01Z</time>
      </trkpt>
      <trkpt lat="47.16553" lon="5.5677">
        <ele>227</ele>
        <time>2008-11-27T15:22:05Z</time>
      </trkpt>
      <trkpt lat="47.16555" lon="5.56774">
        <ele>227</ele>
        <time>2008-11-27T15:22:07Z</time>
      </trkpt>
      <trkpt lat="47.16561" lon="5.56794">
        <ele>228</ele>
        <time>2008-11-27T15:22:18Z</time>
      </trkpt>
      <trkpt lat="47.16561" lon="5.56801">
        <ele>228</ele>
        <time>2008-11-27T15:22:24Z</time>
      </trkpt>
      <trkpt lat="47.16563" lon="5.56819">
        <ele>228</ele>
        <time>2008-11-27T15:22:36Z</time>
      </trkpt>
      <trkpt lat="47.16562" lon="5.56827">
        <ele>228</ele>
        <time>2008-11-27T15:22:40Z</time>
      </trkpt>
      <trkpt lat="47.16561" lon="5.56833">
        <ele>228</ele>
        <time>2008-11-27T15:22:57Z</time>
      </trkpt>
      <trkpt lat="47.16562" lon="5.56834">
        <ele>229</ele>
        <time>2008-11-27T15:25:51Z</time>
      </trkpt>
    </trkseg>
  </trk>
</gpx>